Cleveland, Texas
Current Conditions -  °F | °C
As of 7:55 AM on Thursday 30 Oct 2014 (Local Time) from K6R3 Reporting Station
Clear Clear  
Wind Chill: 10°   Ceiling: Unl
Heat Index: 10°   Visibility: 7mi
Dew Point: 10°   Wind: 0mph
Humidity: 99%   Direction: NA
Pressure: 30.15"   Gusts: NA
Location:  30.34°N, 95.09°W
Report Text: K6R3 301255Z AUTO 00000KT 7SM CLR 10/10 A3015 RMK AO2 T01000098
Loading
Personal Weather Stations






























Interactive Weather Map
Tropical Storm Tracking
New forecast layout! Learn more

10-Day Weather Forecast

Advertisements
Track Severe Weather on mobile